Ocoee, Tennessee
Current Conditions -  °F | °C
As of 3:35 AM on Tuesday 27 Jan 2015 (Local Time) from KRZR Reporting Station
Overcast Overcast  
Wind Chill: 32°   Ceiling: 3200
Heat Index: 32°   Visibility: 10mi
Dew Point: 28°   Wind: 0mph
Humidity: 87%   Direction: NA
Pressure: 29.89"   Gusts: NA
Location:  35.13°N, 84.72°W
Report Text: KRZR 270835Z AUTO 00000KT 10SM OVC032 00/M02 A2989 RMK
Loading
Personal Weather Stations






























Interactive Weather Map New forecast layout! Learn more

10-Day Weather Forecast

Advertisements
Track Severe Weather on mobile